createdAt,value
2022-12-12T00:00:43.971Z,22.98
2022-12-12T00:03:11.441Z,25.70
2022-12-12T00:05:39.005Z,25.52
2022-12-12T00:08:06.409Z,25.38
2022-12-12T00:10:34.974Z,24.48
2022-12-12T00:13:02.625Z,29.63
2022-12-12T00:15:29.714Z,25.10
2022-12-12T00:17:56.675Z,26.10
2022-12-12T00:20:23.653Z,24.55
2022-12-12T00:22:50.660Z,25.95
2022-12-12T00:25:17.741Z,24.67
2022-12-12T00:27:44.777Z,29.42
2022-12-12T00:30:12.250Z,27.33
2022-12-12T00:32:39.188Z,28.95
2022-12-12T00:35:06.862Z,26.83
2022-12-12T00:37:33.914Z,26.90
2022-12-12T00:40:01.016Z,27.00
2022-12-12T00:42:28.486Z,31.85
2022-12-12T00:44:55.487Z,34.42
2022-12-12T00:47:22.492Z,27.17
2022-12-12T00:49:49.470Z,26.45
2022-12-12T00:52:16.663Z,26.40
2022-12-12T00:54:43.596Z,26.48
2022-12-12T00:57:10.540Z,26.00
2022-12-12T00:59:37.489Z,24.10
2022-12-12T01:02:04.626Z,22.45
2022-12-12T01:04:31.656Z,23.60
2022-12-12T01:06:58.606Z,22.83
2022-12-12T01:09:25.795Z,25.40
2022-12-12T01:11:52.738Z,25.58
2022-12-12T01:14:19.698Z,25.23
2022-12-12T01:16:46.670Z,22.08
2022-12-12T01:19:13.813Z,25.95
2022-12-12T01:21:40.752Z,23.65
2022-12-12T01:24:07.770Z,22.80
2022-12-12T01:26:34.752Z,21.48
2022-12-12T01:29:02.191Z,22.35
2022-12-12T01:31:29.177Z,20.90
2022-12-12T01:33:56.266Z,22.90
2022-12-12T01:36:24.035Z,20.33
2022-12-12T01:38:54.257Z,21.85
2022-12-12T01:41:21.537Z,22.53
2022-12-12T01:43:49.658Z,20.65
2022-12-12T01:46:33.117Z,22.52
2022-12-12T01:49:26.177Z,19.13
2022-12-12T01:51:58.767Z,20.60
2022-12-12T01:54:34.220Z,23.40
2022-12-12T01:57:07.138Z,18.77
2022-12-12T01:59:35.379Z,20.90
2022-12-12T02:02:02.681Z,21.65
2022-12-12T02:04:29.764Z,23.65
2022-12-12T02:06:57.640Z,20.50
2022-12-12T02:09:25.993Z,20.35
2022-12-12T02:11:57.038Z,21.83
2022-12-12T02:14:39.322Z,24.38
2022-12-12T02:17:42.947Z,19.98
2022-12-12T02:20:40.567Z,19.98
2022-12-12T02:24:02.575Z,18.83
2022-12-12T02:27:16.814Z,17.27
2022-12-12T02:30:07.508Z,17.13
2022-12-12T02:33:14.726Z,18.10
2022-12-12T02:35:51.550Z,20.67
2022-12-12T02:38:51.438Z,21.70
2022-12-12T02:41:42.473Z,18.05
2022-12-12T02:44:26.592Z,20.45
2022-12-12T02:47:15.722Z,23.42
2022-12-12T02:50:06.296Z,23.08
2022-12-12T02:52:34.226Z,24.38
2022-12-12T02:55:01.158Z,25.02
2022-12-12T02:57:28.574Z,22.40
2022-12-12T03:00:08.332Z,23.52
2022-12-12T03:03:21.390Z,25.60
2022-12-12T03:06:42.287Z,25.65
2022-12-12T03:09:30.742Z,20.60
2022-12-12T03:12:06.150Z,19.75
2022-12-12T03:15:08.547Z,20.60
2022-12-12T03:17:54.596Z,18.15
2022-12-12T03:20:43.227Z,23.02
2022-12-12T03:23:16.262Z,20.27
2022-12-12T03:26:02.101Z,20.85
2022-12-12T03:28:43.900Z,20.30
2022-12-12T03:31:13.000Z,22.90
2022-12-12T03:33:53.092Z,19.05
2022-12-12T03:36:32.476Z,19.75
2022-12-12T03:39:13.393Z,19.67
2022-12-12T03:41:50.235Z,19.65
2022-12-12T03:44:25.136Z,17.40
2022-12-12T03:47:05.640Z,20.52
2022-12-12T03:49:48.632Z,14.75
2022-12-12T03:52:30.448Z,20.73
2022-12-12T03:55:08.406Z,21.67
2022-12-12T03:57:45.773Z,19.90
2022-12-12T04:00:15.143Z,23.13
2022-12-12T04:03:15.567Z,21.65
2022-12-12T04:06:22.002Z,21.30
2022-12-12T04:09:08.205Z,20.13
2022-12-12T04:12:01.368Z,18.80
2022-12-12T04:14:53.192Z,19.67
2022-12-12T04:17:37.629Z,20.73
2022-12-12T04:20:42.516Z,20.85
2022-12-12T04:23:41.766Z,19.83
2022-12-12T04:26:39.969Z,17.30
2022-12-12T04:29:11.880Z,17.90
2022-12-12T04:32:03.436Z,18.58
2022-12-12T04:34:44.244Z,18.50
2022-12-12T04:37:18.484Z,19.15
2022-12-12T04:39:51.078Z,18.05
2022-12-12T04:42:23.746Z,19.67
2022-12-12T04:44:54.275Z,18.75
2022-12-12T04:47:23.758Z,19.63
2022-12-12T04:49:52.467Z,19.65
2022-12-12T04:52:21.285Z,18.50
2022-12-12T04:55:05.540Z,20.23
2022-12-12T04:58:02.200Z,18.20
2022-12-12T05:00:43.995Z,18.45
2022-12-12T05:03:20.074Z,16.80
2022-12-12T05:06:11.608Z,18.77
2022-12-12T05:08:45.942Z,17.67
2022-12-12T05:11:13.898Z,17.25
2022-12-12T05:13:43.066Z,18.52
2022-12-12T05:16:37.702Z,20.95
2022-12-12T05:19:05.142Z,20.17
2022-12-12T05:21:32.198Z,19.95
2022-12-12T05:23:59.130Z,20.77
2022-12-12T05:26:29.685Z,17.58
2022-12-12T05:28:59.926Z,22.35
2022-12-12T05:31:30.697Z,20.40
2022-12-12T05:33:57.791Z,19.75
2022-12-12T05:36:24.765Z,23.50
2022-12-12T05:38:51.693Z,19.27
2022-12-12T05:41:18.648Z,18.30
2022-12-12T05:43:45.581Z,21.30
2022-12-12T05:46:12.632Z,20.77
2022-12-12T05:48:39.677Z,24.83
2022-12-12T05:51:06.652Z,24.02
2022-12-12T05:53:42.065Z,21.50
2022-12-12T05:56:11.342Z,24.77
2022-12-12T05:58:40.467Z,19.45
2022-12-12T06:01:08.340Z,22.52
2022-12-12T06:03:35.860Z,23.58
2022-12-12T06:06:03.831Z,21.40
2022-12-12T06:08:30.867Z,22.35
2022-12-12T06:10:57.864Z,20.83
2022-12-12T06:13:24.843Z,22.77
2022-12-12T06:15:51.812Z,27.13
2022-12-12T06:18:18.958Z,20.20
2022-12-12T06:20:45.929Z,23.23
2022-12-12T06:23:12.972Z,21.33
2022-12-12T06:25:40.006Z,24.77
2022-12-12T06:28:07.254Z,24.85
2022-12-12T06:30:34.496Z,23.17
2022-12-12T06:33:01.527Z,26.08
2022-12-12T06:35:28.498Z,21.38
2022-12-12T06:37:55.444Z,24.25
2022-12-12T06:40:22.394Z,25.25
2022-12-12T06:42:49.416Z,26.20
2022-12-12T06:45:17.185Z,26.73
2022-12-12T06:47:44.302Z,24.20
2022-12-12T06:50:11.800Z,27.30
2022-12-12T06:52:38.785Z,27.20
2022-12-12T06:55:06.380Z,25.25
2022-12-12T06:57:36.163Z,25.35
2022-12-12T07:00:06.411Z,27.08
2022-12-12T07:02:33.397Z,27.05
2022-12-12T07:05:00.499Z,21.00
2022-12-12T07:07:27.418Z,21.42
2022-12-12T07:09:54.333Z,22.45
2022-12-12T07:12:21.293Z,23.75
2022-12-12T07:14:48.255Z,29.10
2022-12-12T07:17:15.200Z,25.98
2022-12-12T07:19:42.295Z,25.23
2022-12-12T07:22:10.385Z,27.83
2022-12-12T07:24:38.046Z,26.35
2022-12-12T07:27:06.351Z,23.65
2022-12-12T07:29:33.735Z,25.35
2022-12-12T07:32:00.770Z,24.38
2022-12-12T07:34:29.895Z,23.17
2022-12-12T07:37:02.529Z,26.60
2022-12-12T07:39:32.557Z,23.38
2022-12-12T07:41:59.799Z,24.50
2022-12-12T07:44:26.880Z,25.92
2022-12-12T07:46:53.915Z,22.63
2022-12-12T07:49:20.864Z,22.42
2022-12-12T07:51:49.359Z,23.23
2022-12-12T07:54:17.161Z,25.08
2022-12-12T07:56:44.139Z,23.83
2022-12-12T07:59:11.918Z,22.58
2022-12-12T08:01:39.679Z,22.27
2022-12-12T08:04:06.702Z,24.13
2022-12-12T08:06:33.750Z,21.95
2022-12-12T08:09:00.687Z,25.38
2022-12-12T08:11:27.825Z,22.58
2022-12-12T08:13:54.977Z,20.70
2022-12-12T08:16:27.851Z,27.20
2022-12-12T08:18:57.526Z,17.80
2022-12-12T08:21:26.799Z,24.70
2022-12-12T08:24:02.170Z,22.92
2022-12-12T08:26:30.718Z,21.80
2022-12-12T08:28:58.662Z,27.15
2022-12-12T08:31:26.186Z,23.88
2022-12-12T08:33:53.656Z,24.75
2022-12-12T08:36:24.534Z,24.13
2022-12-12T08:38:52.402Z,27.17
2022-12-12T08:41:20.022Z,21.70
2022-12-12T08:43:47.438Z,28.50
2022-12-12T08:46:18.036Z,26.98
2022-12-12T08:48:46.465Z,21.27
2022-12-12T08:51:14.752Z,23.60
2022-12-12T08:53:45.708Z,23.10
2022-12-12T08:56:13.485Z,24.60
2022-12-12T08:58:40.741Z,23.95
2022-12-12T09:01:21.453Z,24.75
2022-12-12T09:03:49.010Z,20.67
2022-12-12T09:06:17.131Z,21.55
2022-12-12T09:08:46.178Z,22.88
2022-12-12T09:11:14.082Z,24.55
2022-12-12T09:13:41.530Z,23.85
2022-12-12T09:16:10.904Z,24.00
2022-12-12T09:18:44.606Z,24.20
2022-12-12T09:21:15.030Z,26.98
2022-12-12T09:23:42.050Z,23.13
2022-12-12T09:26:10.237Z,22.33
2022-12-12T09:28:37.660Z,27.27
2022-12-12T09:31:10.219Z,21.13
2022-12-12T09:33:38.093Z,22.17
2022-12-12T09:36:07.889Z,26.17
2022-12-12T09:38:35.533Z,26.27
2022-12-12T09:41:10.332Z,28.02
2022-12-12T09:44:06.274Z,24.95
2022-12-12T09:46:47.107Z,21.80
2022-12-12T09:49:47.735Z,19.98
2022-12-12T09:52:31.291Z,14.33
2022-12-12T09:55:17.149Z,18.77
2022-12-12T09:57:56.279Z,19.90
2022-12-12T10:00:23.314Z,22.83
2022-12-12T10:03:19.175Z,24.63
2022-12-12T10:09:33.940Z,20.88
2022-12-12T10:12:08.002Z,20.85
2022-12-12T10:14:52.745Z,23.10
2022-12-12T10:17:37.301Z,21.77
2022-12-12T10:20:32.492Z,20.77
2022-12-12T10:23:15.806Z,22.67
2022-12-12T10:25:56.374Z,20.92
2022-12-12T10:28:30.938Z,21.45
2022-12-12T10:31:25.631Z,24.60
2022-12-12T10:34:15.767Z,21.80
2022-12-12T10:37:22.987Z,24.98
2022-12-12T10:40:14.165Z,24.25
2022-12-12T10:43:14.815Z,24.33
2022-12-12T10:46:09.545Z,22.73
2022-12-12T10:48:36.782Z,20.58
2022-12-12T10:51:07.977Z,22.75
2022-12-12T10:53:35.365Z,29.75
2022-12-12T10:56:07.708Z,24.20
2022-12-12T10:58:51.222Z,21.40
2022-12-12T11:01:38.383Z,22.95
2022-12-12T11:04:08.953Z,24.02
2022-12-12T11:06:51.556Z,26.63
2022-12-12T11:09:28.305Z,26.15
2022-12-12T11:12:04.400Z,24.92
2022-12-12T11:14:52.045Z,22.88
2022-12-12T11:17:25.773Z,23.00
2022-12-12T11:19:57.230Z,26.67
2022-12-12T11:22:25.919Z,22.80
2022-12-12T11:24:54.529Z,30.35
2022-12-12T11:27:31.285Z,28.17
2022-12-12T11:30:06.055Z,27.10
2022-12-12T11:32:44.531Z,21.42
2022-12-12T11:35:45.723Z,23.77
2022-12-12T11:38:22.177Z,23.45
2022-12-12T11:41:05.760Z,23.88
2022-12-12T11:43:37.847Z,24.50
2022-12-12T11:46:16.041Z,25.30
2022-12-12T11:48:51.619Z,23.52
2022-12-12T11:51:40.877Z,23.95
2022-12-12T11:54:34.621Z,23.20
2022-12-12T11:57:15.073Z,24.65
2022-12-12T12:00:11.406Z,18.30
2022-12-12T12:03:09.046Z,21.25
2022-12-12T12:06:35.824Z,21.60
2022-12-12T12:09:41.368Z,20.35
2022-12-12T12:12:20.997Z,21.35
2022-12-12T12:14:57.042Z,22.38
2022-12-12T12:17:32.559Z,22.60
2022-12-12T12:20:33.595Z,20.83
2022-12-12T12:23:42.530Z,20.50
2022-12-12T12:26:52.677Z,20.07
2022-12-12T12:30:16.135Z,20.17
2022-12-12T12:33:26.165Z,21.35
2022-12-12T12:36:20.855Z,20.70
2022-12-12T12:39:24.111Z,21.77
2022-12-12T12:42:26.136Z,22.73
2022-12-12T12:45:15.511Z,21.15
2022-12-12T12:47:53.609Z,24.08
2022-12-12T12:50:34.494Z,20.58
2022-12-12T12:53:59.150Z,20.52
2022-12-12T12:56:34.005Z,19.88
2022-12-12T12:59:14.983Z,23.05
2022-12-12T13:01:46.567Z,20.10
2022-12-12T13:04:41.844Z,20.25
2022-12-12T13:07:49.790Z,21.27
2022-12-12T13:10:28.061Z,21.05
2022-12-12T13:13:14.912Z,25.02
2022-12-12T13:15:58.649Z,22.20
2022-12-12T13:18:37.059Z,24.77
2022-12-12T13:21:35.632Z,21.58
2022-12-12T13:27:03.205Z,21.13
2022-12-12T13:29:50.702Z,19.63
2022-12-12T13:32:50.535Z,22.92
2022-12-12T13:35:51.096Z,22.65
2022-12-12T13:38:29.855Z,19.53
2022-12-12T13:40:59.197Z,19.15
2022-12-12T13:43:34.330Z,24.45
2022-12-12T13:46:23.309Z,21.38
2022-12-12T13:49:24.299Z,20.80
2022-12-12T13:51:51.430Z,19.02
2022-12-12T13:54:18.248Z,17.70
2022-12-12T13:56:57.249Z,20.30
2022-12-12T13:59:26.684Z,20.90
2022-12-12T14:02:02.105Z,18.52
2022-12-12T14:04:41.525Z,21.95
2022-12-12T14:07:21.676Z,20.80
2022-12-12T14:09:52.660Z,20.15
2022-12-12T14:12:33.477Z,21.17
2022-12-12T14:15:18.341Z,19.80
2022-12-12T14:17:55.718Z,18.92
2022-12-12T14:20:33.966Z,18.83
2022-12-12T14:23:12.670Z,22.20
2022-12-12T14:25:41.523Z,18.00
2022-12-12T14:28:30.802Z,16.60
2022-12-12T14:31:16.948Z,20.17
2022-12-12T14:33:59.753Z,15.13
2022-12-12T14:37:00.803Z,13.73
2022-12-12T14:40:00.889Z,16.17
2022-12-12T14:43:19.939Z,15.25
2022-12-12T14:45:53.692Z,15.05
2022-12-12T14:48:28.093Z,16.30
2022-12-12T14:51:34.595Z,15.57
2022-12-12T14:54:03.988Z,16.63
2022-12-12T14:56:53.015Z,15.77
2022-12-12T14:59:39.105Z,15.07
2022-12-12T15:02:38.923Z,12.95
2022-12-12T15:05:08.204Z,11.57
2022-12-12T15:07:40.832Z,13.63
2022-12-12T15:10:27.438Z,13.00
2022-12-12T15:12:54.504Z,15.27
2022-12-12T15:15:32.013Z,15.98
2022-12-12T15:18:00.882Z,15.80
2022-12-12T15:20:32.333Z,13.13
2022-12-12T15:23:02.855Z,15.13
2022-12-12T15:25:55.196Z,10.77
2022-12-12T15:28:24.826Z,11.63
2022-12-12T15:30:53.519Z,15.10
2022-12-12T15:33:26.978Z,13.80
2022-12-12T15:36:02.177Z,15.75
2022-12-12T15:38:30.062Z,14.13
2022-12-12T15:41:06.634Z,12.23
2022-12-12T15:43:38.837Z,18.95
2022-12-12T15:46:16.102Z,14.48
2022-12-12T15:48:45.174Z,15.85
2022-12-12T15:51:14.898Z,14.77
2022-12-12T15:53:52.337Z,12.63
2022-12-12T15:56:25.107Z,18.98
2022-12-12T15:59:21.212Z,15.40
2022-12-12T16:01:48.240Z,16.17
2022-12-12T16:04:15.114Z,14.77
2022-12-12T16:06:48.261Z,16.90
2022-12-12T16:09:22.452Z,15.43
2022-12-12T16:11:52.919Z,18.73
2022-12-12T16:14:24.667Z,15.98
2022-12-12T16:17:20.772Z,15.38
2022-12-12T16:19:53.763Z,14.73
2022-12-12T16:22:47.119Z,15.27
2022-12-12T16:25:32.392Z,14.40
2022-12-12T16:28:08.416Z,15.23
2022-12-12T16:30:37.448Z,15.77
2022-12-12T16:33:30.724Z,15.90
2022-12-12T16:36:00.703Z,16.95
2022-12-12T16:38:29.637Z,14.05
2022-12-12T16:41:00.992Z,15.48
2022-12-12T16:43:28.538Z,18.33
2022-12-12T16:45:56.934Z,15.63
2022-12-12T16:48:36.748Z,15.90
2022-12-12T16:51:09.164Z,14.82
2022-12-12T16:53:36.983Z,16.73
2022-12-12T16:56:04.739Z,16.60
2022-12-12T16:58:32.672Z,16.77
2022-12-12T17:01:01.584Z,15.77
2022-12-12T17:03:29.898Z,16.63
2022-12-12T17:05:56.844Z,16.45
2022-12-12T17:08:23.851Z,14.85
2022-12-12T17:11:10.094Z,16.95
2022-12-12T17:13:46.095Z,18.52
2022-12-12T17:16:13.386Z,21.70
2022-12-12T17:18:40.406Z,20.05
2022-12-12T17:21:07.376Z,20.98
2022-12-12T17:23:34.326Z,20.98
2022-12-12T17:26:04.771Z,19.50
2022-12-12T17:28:33.961Z,23.60
2022-12-12T17:31:01.334Z,22.05
2022-12-12T17:33:28.731Z,21.58
2022-12-12T17:36:05.482Z,23.42
2022-12-12T17:38:33.620Z,22.85
2022-12-12T17:41:08.886Z,23.17
2022-12-12T17:43:37.430Z,22.52
2022-12-12T17:46:14.225Z,20.98
2022-12-12T17:48:46.542Z,17.85
2022-12-12T17:51:17.797Z,18.63
2022-12-12T17:53:44.783Z,20.70
2022-12-12T17:56:18.111Z,22.27
2022-12-12T17:58:47.610Z,21.17
2022-12-12T18:01:21.676Z,22.63
2022-12-12T18:03:49.503Z,19.88
2022-12-12T18:06:18.669Z,17.75
2022-12-12T18:08:46.883Z,18.88
2022-12-12T18:11:19.139Z,22.17
2022-12-12T18:13:50.250Z,20.17
2022-12-12T18:16:18.277Z,18.80
2022-12-12T18:18:45.474Z,20.48
2022-12-12T18:21:42.904Z,22.23
2022-12-12T18:24:04.274Z,18.80
2022-12-12T18:26:31.345Z,19.98
2022-12-12T18:29:06.934Z,21.65
2022-12-12T18:31:35.014Z,21.98
2022-12-12T18:34:02.303Z,17.02
2022-12-12T18:36:30.865Z,19.30
2022-12-12T18:39:01.776Z,17.90
2022-12-12T18:41:28.968Z,17.02
2022-12-12T18:43:56.093Z,17.02
2022-12-12T18:46:27.686Z,18.98
2022-12-12T18:48:54.627Z,19.10
2022-12-12T18:51:25.033Z,17.85
2022-12-12T18:53:54.481Z,16.58
2022-12-12T18:56:25.684Z,14.40
2022-12-12T18:58:54.317Z,18.63
2022-12-12T19:01:25.827Z,14.23
2022-12-12T19:03:56.656Z,16.58
2022-12-12T19:06:33.841Z,16.60
2022-12-12T19:09:17.504Z,17.45
2022-12-12T19:11:45.626Z,16.02
2022-12-12T19:14:15.065Z,17.30
2022-12-12T19:16:43.961Z,14.68
2022-12-12T19:19:12.041Z,15.18
2022-12-12T19:21:40.780Z,15.88
2022-12-12T19:24:09.254Z,15.75
2022-12-12T19:26:37.250Z,15.27
2022-12-12T19:29:11.977Z,15.50
2022-12-12T19:31:39.227Z,14.38
2022-12-12T19:34:07.948Z,13.80
2022-12-12T19:36:35.882Z,15.98
2022-12-12T19:39:06.138Z,13.63
2022-12-12T19:41:33.959Z,12.80
2022-12-12T19:44:02.726Z,16.15
2022-12-12T19:46:31.524Z,13.52
2022-12-12T19:49:01.939Z,13.18
2022-12-12T19:51:35.958Z,14.88
2022-12-12T19:54:08.292Z,14.90
2022-12-12T19:56:38.618Z,13.00
2022-12-12T19:59:05.897Z,13.13
2022-12-12T20:01:35.946Z,12.95
2022-12-12T20:04:22.125Z,12.93
2022-12-12T20:06:50.334Z,13.32
2022-12-12T20:09:27.580Z,11.65
2022-12-12T20:11:56.787Z,12.65
2022-12-12T20:14:31.461Z,14.52
2022-12-12T20:16:59.892Z,14.90
2022-12-12T20:19:27.835Z,15.98
2022-12-12T20:22:03.820Z,12.20
2022-12-12T20:24:33.587Z,12.68
2022-12-12T20:27:05.670Z,12.07
2022-12-12T20:29:32.921Z,13.52
2022-12-12T20:32:01.203Z,13.68
2022-12-12T20:34:28.931Z,12.45
2022-12-12T20:36:56.277Z,13.48
2022-12-12T20:39:24.810Z,10.55
2022-12-12T20:41:53.568Z,12.55
2022-12-12T20:44:23.198Z,12.98
2022-12-12T20:46:50.164Z,11.35
2022-12-12T20:49:19.723Z,12.00
2022-12-12T20:51:56.391Z,10.55
2022-12-12T20:54:26.117Z,10.82
2022-12-12T20:56:55.817Z,13.02
2022-12-12T20:59:23.621Z,10.60
2022-12-12T21:01:51.019Z,14.90
2022-12-12T21:04:18.292Z,11.13
2022-12-12T21:06:49.701Z,14.88
2022-12-12T21:09:23.813Z,11.07
2022-12-12T21:11:54.868Z,11.25
2022-12-12T21:14:22.390Z,12.35
2022-12-12T21:16:49.649Z,10.60
2022-12-12T21:19:18.691Z,12.07
2022-12-12T21:21:46.488Z,14.80
2022-12-12T21:24:16.652Z,15.20
2022-12-12T21:26:44.499Z,11.57
2022-12-12T21:29:11.509Z,12.93
2022-12-12T21:31:48.129Z,15.82
2022-12-12T21:34:18.887Z,12.85
2022-12-12T21:36:45.892Z,13.30
2022-12-12T21:39:13.502Z,11.73
2022-12-12T21:41:43.656Z,13.95
2022-12-12T21:44:10.711Z,11.10
2022-12-12T21:46:41.593Z,11.38
2022-12-12T21:52:13.757Z,10.27
2022-12-12T21:54:40.735Z,11.63
2022-12-12T21:57:08.001Z,9.75
2022-12-12T21:59:38.590Z,9.98
2022-12-12T22:02:07.011Z,11.85
2022-12-12T22:04:34.096Z,12.05
2022-12-12T22:07:01.041Z,11.20
2022-12-12T22:09:28.104Z,18.23
2022-12-12T22:12:03.961Z,9.93
2022-12-12T22:14:33.493Z,13.60
2022-12-12T22:17:02.864Z,11.25
2022-12-12T22:19:29.808Z,13.98
2022-12-12T22:21:56.753Z,13.90
2022-12-12T22:24:23.704Z,16.30
2022-12-12T22:26:50.757Z,12.77
2022-12-12T22:29:20.009Z,12.88
2022-12-12T22:31:49.843Z,13.73
2022-12-12T22:34:21.621Z,13.70
2022-12-12T22:36:48.814Z,14.40
2022-12-12T22:39:23.343Z,13.50
2022-12-12T22:41:50.803Z,13.40
2022-12-12T22:44:20.327Z,13.82
2022-12-12T22:46:50.619Z,14.35
2022-12-12T22:49:22.481Z,9.43
2022-12-12T22:51:49.956Z,12.68
2022-12-12T22:54:17.977Z,15.27
2022-12-12T22:56:45.356Z,15.38
2022-12-12T22:59:13.546Z,14.35
2022-12-12T23:01:41.829Z,15.40
2022-12-12T23:04:13.157Z,14.00
2022-12-12T23:06:40.991Z,17.13
2022-12-12T23:09:21.111Z,15.95
2022-12-12T23:11:49.495Z,15.95
2022-12-12T23:14:21.488Z,13.20
2022-12-12T23:16:50.279Z,17.45
2022-12-12T23:19:22.314Z,14.23
2022-12-12T23:21:49.701Z,12.63
2022-12-12T23:24:16.626Z,16.30
2022-12-12T23:26:44.362Z,14.77
2022-12-12T23:29:16.696Z,16.30
2022-12-12T23:31:44.353Z,14.43
2022-12-12T23:34:23.754Z,12.85
2022-12-12T23:36:53.676Z,14.95
2022-12-12T23:39:22.140Z,12.73
2022-12-12T23:41:49.446Z,12.55
2022-12-12T23:44:18.991Z,15.82
2022-12-12T23:46:46.488Z,16.40
2022-12-12T23:49:13.289Z,13.95
2022-12-12T23:51:52.526Z,16.20
2022-12-12T23:54:32.016Z,13.77
2022-12-12T23:57:00.096Z,15.23
2022-12-12T23:59:27.578Z,14.63
